Time;durP1;ratioP1;P1;durP2;ratioP2;P2;SDS_P1;SDS_P2;PMS_P1;PMS_P2;Temp;Humidity;BMP_temperature;BMP_pressure;BME280_temperature;BME280_humidity;BME280_pressure;Samples;Min_cycle;Max_cycle;Signal;HPM_P1;HPM_P2
2021/09/21 00:00:29;;;;;;;;;;;;;;;10.90;67.61;102718.13;5076746;28;20000;-35
2021/09/21 00:02:54;;;;;;;;;;;;;;;10.85;67.15;102720.56;5076799;28;19912;-35
2021/09/21 00:05:20;;;;;;;;;;;;;;;10.80;67.43;102733.81;5076185;28;20225;-35
2021/09/21 00:07:46;;;;;;;;;;;;;;;10.75;68.08;102730.84;5074920;28;19908;-35
2021/09/21 00:10:11;;;;;;;;;;;;;;;10.72;67.70;102731.19;5075848;28;20344;-35
2021/09/21 00:12:37;;;;;;;;;;;;;;;10.69;67.62;102750.53;5077193;28;19916;-35
2021/09/21 00:15:02;;;;;;;;;;;;;;;10.62;68.20;102750.41;5075351;28;19952;-35
2021/09/21 00:17:28;;;;;;;;;;;;;;;10.57;67.89;102759.06;5076021;28;19908;-35
2021/09/21 00:19:53;;;;;;;;;;;;;;;10.54;69.03;102754.06;5075947;28;19908;-35
2021/09/21 00:22:18;;;;;;;;;;;;;;;10.50;67.78;102747.31;5076577;28;19908;-35
2021/09/21 00:24:43;;;;;;;;;;;;;;;10.45;68.07;102749.75;5076681;28;19908;-35
2021/09/21 00:27:08;;;;;;;;;;;;;;;10.45;68.20;102751.63;5091623;28;20007;-35
2021/09/21 00:29:34;;;;;;;;;;;;;;;10.41;70.48;102748.44;5075568;28;20387;-35
2021/09/21 00:32:00;;;;;;;;;;;;;;;10.40;68.52;102751.31;5075550;28;19909;-34
2021/09/21 00:34:37;;;;;;;;;;;;;;;10.38;68.77;102750.66;5075663;28;20306;-35
2021/09/21 00:37:02;;;;;;;;;;;;;;;10.35;69.17;102748.34;5075618;28;19919;-35
2021/09/21 00:39:28;;;;;;;;;;;;;;;10.31;68.99;102748.69;5075869;28;20002;-35
2021/09/21 00:41:54;;;;;;;;;;;;;;;10.24;69.17;102749.59;5075774;28;19951;-35
2021/09/21 00:44:20;;;;;;;;;;;;;;;10.20;68.75;102743.69;5075329;28;20374;-34
2021/09/21 00:46:45;;;;;;;;;;;;;;;10.20;68.92;102741.00;5076016;28;19915;-34
2021/09/21 00:49:11;;;;;;;;;;;;;;;10.20;69.10;102748.22;5075117;28;19908;-34
2021/09/21 00:51:36;;;;;;;;;;;;;;;10.15;69.29;102743.41;5075246;28;20306;-35
2021/09/21 00:54:02;;;;;;;;;;;;;;;10.14;69.44;102749.81;5075484;28;20344;-35
2021/09/21 00:56:27;;;;;;;;;;;;;;;10.14;68.92;102747.09;5075471;28;20066;-35
2021/09/21 00:58:52;;;;;;;;;;;;;;;10.13;68.96;102750.00;5075169;28;19915;-34
2021/09/21 01:01:17;;;;;;;;;;;;;;;10.08;69.55;102758.66;5075715;28;19948;-35
2021/09/21 01:03:42;;;;;;;;;;;;;;;10.05;69.75;102759.88;5074760;28;20280;-34
2021/09/21 01:06:08;;;;;;;;;;;;;;;10.04;69.48;102755.47;5075834;28;20004;-34
2021/09/21 01:08:33;;;;;;;;;;;;;;;10.02;69.60;102759.38;5075753;28;20016;-35
2021/09/21 01:10:58;;;;;;;;;;;;;;;10.01;69.85;102766.66;5075589;28;20234;-34
2021/09/21 01:13:23;;;;;;;;;;;;;;;9.98;69.89;102772.41;5075094;28;19915;-35
2021/09/21 01:15:49;;;;;;;;;;;;;;;9.93;69.97;102773.97;5074914;28;19908;-34
2021/09/21 01:18:14;;;;;;;;;;;;;;;9.93;69.92;102782.06;5074525;28;19952;-35
2021/09/21 01:20:39;;;;;;;;;;;;;;;9.93;70.29;102779.38;5074584;28;19962;-34
2021/09/21 01:23:04;;;;;;;;;;;;;;;9.91;69.91;102784.13;5074775;28;19909;-34
2021/09/21 01:25:32;;;;;;;;;;;;;;;9.87;69.63;102778.22;5074734;28;19915;-35
2021/09/21 01:27:57;;;;;;;;;;;;;;;9.85;69.60;102782.97;5074813;28;19908;-34
2021/09/21 01:30:23;;;;;;;;;;;;;;;9.80;70.11;102777.25;5074594;28;19908;-35
2021/09/21 01:32:48;;;;;;;;;;;;;;;9.78;70.02;102776.59;5074056;28;19908;-35
2021/09/21 01:35:15;;;;;;;;;;;;;;;9.72;70.09;102777.31;5074413;28;19943;-34
2021/09/21 01:37:42;;;;;;;;;;;;;;;9.72;69.85;102782.72;5074723;28;20024;-34
2021/09/21 01:40:07;;;;;;;;;;;;;;;9.71;70.20;102776.47;5074010;28;19908;-34
2021/09/21 01:42:33;;;;;;;;;;;;;;;9.70;70.17;102784.75;5074040;28;20264;-34
2021/09/21 01:44:58;;;;;;;;;;;;;;;9.64;71.03;102777.34;5073951;28;19909;-34
2021/09/21 01:47:23;;;;;;;;;;;;;;;9.61;70.04;102772.31;5074516;28;20245;-35
2021/09/21 01:52:23;;;;;;;;;;;;;;;9.57;70.08;102762.91;5074669;28;19912;-34
2021/09/21 01:55:06;;;;;;;;;;;;;;;9.57;70.79;102769.13;5074246;28;19908;-34
2021/09/21 02:00:16;;;;;;;;;;;;;;;9.50;70.81;102755.47;5074665;28;19915;-34
2021/09/21 02:02:41;;;;;;;;;;;;;;;9.48;70.60;102756.69;5074556;28;19908;-34
2021/09/21 02:05:07;;;;;;;;;;;;;;;9.43;70.39;102757.22;5073723;28;20015;-35
2021/09/21 02:07:33;;;;;;;;;;;;;;;9.42;70.59;102757.38;5072835;28;19912;-35
2021/09/21 02:09:58;;;;;;;;;;;;;;;9.39;70.23;102760.44;5073849;28;19908;-34
2021/09/21 02:12:23;;;;;;;;;;;;;;;9.38;70.89;102756.06;5073578;28;19962;-34
2021/09/21 02:14:48;;;;;;;;;;;;;;;9.34;70.80;102752.03;5074187;28;20004;-35
2021/09/21 02:17:13;;;;;;;;;;;;;;;9.33;70.84;102742.25;5073788;28;19909;-34
2021/09/21 02:19:40;;;;;;;;;;;;;;;9.33;70.79;102739.56;5073655;28;19962;-35
2021/09/21 02:22:06;;;;;;;;;;;;;;;9.28;70.94;102753.59;5089923;28;19978;-34
2021/09/21 02:24:31;;;;;;;;;;;;;;;9.26;71.38;102748.34;5073413;28;19908;-35
2021/09/21 02:26:57;;;;;;;;;;;;;;;9.25;71.39;102749.38;5089712;28;19908;-34
2021/09/21 02:29:22;;;;;;;;;;;;;;;9.23;71.14;102745.19;5073418;28;20271;-34
2021/09/21 02:31:47;;;;;;;;;;;;;;;9.20;71.37;102757.16;5073435;28;19964;-34
2021/09/21 02:34:12;;;;;;;;;;;;;;;9.18;71.55;102752.97;5073608;28;19961;-34
2021/09/21 02:36:41;;;;;;;;;;;;;;;9.16;71.68;102760.38;5073722;28;19915;-35
2021/09/21 02:39:07;;;;;;;;;;;;;;;9.17;71.62;102764.75;5073578;28;20007;-34
2021/09/21 02:41:32;;;;;;;;;;;;;;;9.18;71.34;102761.06;5073852;28;19955;-34
2021/09/21 02:43:57;;;;;;;;;;;;;;;9.18;71.21;102755.66;5073577;28;19908;-34
2021/09/21 02:46:22;;;;;;;;;;;;;;;9.17;71.70;102768.28;5072526;28;19951;-35
2021/09/21 02:48:47;;;;;;;;;;;;;;;9.16;71.11;102779.28;5073479;28;20429;-35
2021/09/21 02:51:13;;;;;;;;;;;;;;;9.15;71.04;102769.50;5073448;28;19999;-35
2021/09/21 02:53:38;;;;;;;;;;;;;;;9.14;71.67;102778.63;5073332;28;19958;-34
2021/09/21 02:56:03;;;;;;;;;;;;;;;9.12;71.24;102780.63;5073974;28;19908;-35
2021/09/21 02:58:28;;;;;;;;;;;;;;;9.10;71.13;102783.50;5071784;28;20249;-34
2021/09/21 03:00:56;;;;;;;;;;;;;;;9.09;71.37;102778.28;5073965;28;19999;-34
2021/09/21 03:03:23;;;;;;;;;;;;;;;9.06;71.56;102776.78;5073864;28;19912;-35
2021/09/21 03:06:10;;;;;;;;;;;;;;;9.06;71.22;102781.34;5073314;28;19908;-35
2021/09/21 03:08:37;;;;;;;;;;;;;;;9.04;71.46;102784.22;5075061;28;20318;-35
2021/09/21 03:19:01;;;;;;;;;;;;;;;9.07;71.70;102780.31;5076917;28;19958;-34
2021/09/21 03:21:27;;;;;;;;;;;;;;;9.06;71.47;102789.44;5076838;28;20345;-34
2021/09/21 03:23:52;;;;;;;;;;;;;;;9.03;71.75;102786.06;5075632;28;19951;-35
2021/09/21 03:26:17;;;;;;;;;;;;;;;8.98;71.40;102783.06;5077071;28;19948;-34
2021/09/21 03:28:42;;;;;;;;;;;;;;;8.95;71.87;102787.94;5076887;28;19935;-35
2021/09/21 03:31:08;;;;;;;;;;;;;;;8.95;71.91;102796.88;5077691;28;19919;-35
2021/09/21 03:33:33;;;;;;;;;;;;;;;8.91;71.64;102814.41;5076729;28;19915;-34
2021/09/21 03:35:58;;;;;;;;;;;;;;;8.90;72.12;102817.31;5076994;28;19908;-35
2021/09/21 03:38:23;;;;;;;;;;;;;;;8.86;71.81;102819.50;5076716;28;19960;-35
2021/09/21 03:40:49;;;;;;;;;;;;;;;8.84;71.71;102816.13;5077010;28;19916;-34
2021/09/21 03:43:14;;;;;;;;;;;;;;;8.81;72.55;102813.78;5076712;28;19908;-35
2021/09/21 03:45:39;;;;;;;;;;;;;;;8.78;72.26;102811.41;5077195;28;20337;-34
2021/09/21 03:48:07;;;;;;;;;;;;;;;8.70;71.46;102812.28;5076945;28;19908;-35
2021/09/21 03:50:32;;;;;;;;;;;;;;;8.65;71.97;102816.50;5077062;28;19908;-34
2021/09/21 03:52:57;;;;;;;;;;;;;;;8.63;72.59;102827.44;5077094;28;20007;-35
2021/09/21 03:55:23;;;;;;;;;;;;;;;8.65;72.42;102830.00;5076543;28;20276;-34
2021/09/21 03:57:48;;;;;;;;;;;;;;;8.67;72.51;102838.75;5076484;28;20248;-34
2021/09/21 04:00:14;;;;;;;;;;;;;;;8.70;72.73;102843.81;5076085;28;19915;-34
2021/09/21 04:02:39;;;;;;;;;;;;;;;8.69;72.45;102845.66;5077142;28;19915;-35
2021/09/21 04:05:05;;;;;;;;;;;;;;;8.66;73.81;102843.28;5076343;28;20358;-35
2021/09/21 04:07:30;;;;;;;;;;;;;;;8.62;72.68;102846.50;5076575;28;19915;-35
2021/09/21 04:09:56;;;;;;;;;;;;;;;8.60;72.54;102853.94;5076521;28;19912;-35
2021/09/21 04:12:21;;;;;;;;;;;;;;;8.57;72.51;102856.94;5076507;28;19915;-34
2021/09/21 04:14:46;;;;;;;;;;;;;;;8.59;73.08;102865.69;5076098;28;20260;-35
2021/09/21 04:17:11;;;;;;;;;;;;;;;8.58;72.99;102864.84;5076663;28;19951;-34
2021/09/21 04:19:36;;;;;;;;;;;;;;;8.58;72.85;102862.16;5075283;28;19915;-35
2021/09/21 04:22:02;;;;;;;;;;;;;;;8.54;72.89;102854.56;5076342;28;20248;-34
2021/09/21 04:24:27;;;;;;;;;;;;;;;8.49;72.32;102850.56;5075639;28;20206;-35
2021/09/21 04:26:52;;;;;;;;;;;;;;;8.46;72.91;102858.97;5075946;28;19908;-35
2021/09/21 04:29:18;;;;;;;;;;;;;;;8.43;72.44;102862.00;5075535;28;20003;-35
2021/09/21 04:31:44;;;;;;;;;;;;;;;8.44;73.05;102870.91;5076096;28;19958;-34
2021/09/21 04:34:13;;;;;;;;;;;;;;;8.42;72.95;102856.78;5075631;28;19908;-34
2021/09/21 04:36:39;;;;;;;;;;;;;;;8.36;73.75;102863.69;5075675;28;20349;-35
2021/09/21 04:39:05;;;;;;;;;;;;;;;8.32;73.53;102862.28;5074277;28;19915;-34
2021/09/21 04:41:30;;;;;;;;;;;;;;;8.28;73.36;102850.16;5076167;28;19908;-34
2021/09/21 04:43:56;;;;;;;;;;;;;;;8.23;73.04;102857.91;5076069;28;19927;-34
2021/09/21 04:46:21;;;;;;;;;;;;;;;8.20;72.93;102871.72;5075793;28;19912;-34
2021/09/21 04:48:46;;;;;;;;;;;;;;;8.18;73.45;102868.34;5076001;28;19908;-34
2021/09/21 04:51:11;;;;;;;;;;;;;;;8.16;73.37;102871.22;5074855;28;19912;-34
2021/09/21 04:53:37;;;;;;;;;;;;;;;8.13;73.96;102874.22;5075326;28;19908;-34
2021/09/21 04:56:02;;;;;;;;;;;;;;;8.11;73.86;102873.56;5075311;28;19916;-35
2021/09/21 04:58:27;;;;;;;;;;;;;;;8.09;72.94;102877.41;5075228;28;20023;-34
2021/09/21 05:00:54;;;;;;;;;;;;;;;8.02;73.44;102877.25;5075238;28;20387;-35
2021/09/21 05:03:19;;;;;;;;;;;;;;;8.02;73.36;102885.31;5075284;28;19969;-35
2021/09/21 05:05:45;;;;;;;;;;;;;;;8.03;73.67;102889.69;5075061;28;19908;-35
2021/09/21 05:08:10;;;;;;;;;;;;;;;8.02;73.31;102898.78;5075524;28;19908;-35
2021/09/21 05:10:35;;;;;;;;;;;;;;;8.04;73.75;102899.47;5074850;28;19921;-40
2021/09/21 05:13:00;;;;;;;;;;;;;;;8.08;73.65;102894.59;5074223;28;19986;-35
2021/09/21 05:15:26;;;;;;;;;;;;;;;8.12;73.83;102895.97;5075059;28;19919;-34
2021/09/21 05:17:51;;;;;;;;;;;;;;;8.11;76.53;102903.19;5075468;28;19909;-34
2021/09/21 05:20:16;;;;;;;;;;;;;;;8.10;75.50;102896.13;5075108;28;19908;-35
2021/09/21 05:22:42;;;;;;;;;;;;;;;8.08;74.86;102908.06;5074924;28;20005;-34
2021/09/21 05:25:07;;;;;;;;;;;;;;;8.08;76.04;102908.91;5074581;28;19912;-34
2021/09/21 05:27:33;;;;;;;;;;;;;;;8.04;75.93;102914.78;5075140;28;20059;-34
2021/09/21 05:29:58;;;;;;;;;;;;;;;8.06;74.47;102920.88;5074432;28;19951;-35
2021/09/21 05:32:23;;;;;;;;;;;;;;;8.07;74.52;102917.16;5073780;28;20003;-35
2021/09/21 05:34:48;;;;;;;;;;;;;;;8.07;74.68;102920.69;5074666;28;20414;-35
2021/09/21 05:37:14;;;;;;;;;;;;;;;8.08;74.57;102918.84;5074480;28;19955;-34
2021/09/21 05:39:39;;;;;;;;;;;;;;;8.11;74.70;102923.91;5074389;28;19962;-35
2021/09/21 05:42:05;;;;;;;;;;;;;;;8.15;74.23;102919.88;5074186;28;20264;-34
2021/09/21 05:44:30;;;;;;;;;;;;;;;8.19;74.22;102926.63;5074321;28;20252;-35
2021/09/21 05:46:55;;;;;;;;;;;;;;;8.22;74.48;102915.50;5075440;28;19912;-34
2021/09/21 05:49:20;;;;;;;;;;;;;;;8.30;74.32;102923.63;5074038;28;19919;-35
2021/09/21 05:51:46;;;;;;;;;;;;;;;8.36;74.48;102939.16;5074551;28;20352;-35
2021/09/21 05:54:11;;;;;;;;;;;;;;;8.57;75.21;102943.25;5074373;28;19914;-34
2021/09/21 05:56:36;;;;;;;;;;;;;;;8.86;73.99;102940.91;5073859;28;19908;-34
2021/09/21 05:59:02;;;;;;;;;;;;;;;8.97;73.63;102943.25;5073998;28;19908;-35
2021/09/21 06:01:30;;;;;;;;;;;;;;;8.96;73.92;102940.72;5074110;28;19908;-35
2021/09/21 06:03:55;;;;;;;;;;;;;;;8.88;75.18;102951.50;5073595;28;19908;-34
2021/09/21 06:06:21;;;;;;;;;;;;;;;8.86;74.75;102943.59;5074216;28;19976;-35
2021/09/21 06:08:47;;;;;;;;;;;;;;;8.83;73.98;102946.63;5073874;28;19916;-34
2021/09/21 06:11:12;;;;;;;;;;;;;;;8.81;74.24;102942.44;5074394;28;20013;-34
2021/09/21 06:13:37;;;;;;;;;;;;;;;8.77;73.98;102939.22;5073916;28;19966;-34
2021/09/21 06:16:02;;;;;;;;;;;;;;;8.75;73.74;102941.25;5073853;28;19943;-34
2021/09/21 06:18:28;;;;;;;;;;;;;;;8.76;74.50;102945.63;5073805;28;19908;-34
2021/09/21 06:20:53;;;;;;;;;;;;;;;8.81;74.67;102945.97;5073888;28;19908;-34
2021/09/21 06:23:18;;;;;;;;;;;;;;;8.87;73.94;102952.53;5073642;28;19908;-35
2021/09/21 06:25:44;;;;;;;;;;;;;;;8.94;74.29;102949.00;5073612;28;19956;-34
2021/09/21 06:28:09;;;;;;;;;;;;;;;9.00;74.43;102953.72;5074497;28;19909;-35
2021/09/21 06:30:34;;;;;;;;;;;;;;;9.02;74.08;102959.78;5072336;28;19908;-34
2021/09/21 06:32:59;;;;;;;;;;;;;;;9.10;74.33;102967.03;5074195;28;20348;-34
2021/09/21 06:35:25;;;;;;;;;;;;;;;9.17;75.32;102973.44;5073615;28;19908;-34
2021/09/21 06:37:50;;;;;;;;;;;;;;;9.23;75.15;102982.75;5074096;28;19908;-34
2021/09/21 06:40:16;;;;;;;;;;;;;;;9.31;76.17;102971.91;5074329;28;20363;-34
2021/09/21 06:42:42;;;;;;;;;;;;;;;9.38;76.25;102993.69;5073405;28;19908;-34
2021/09/21 06:45:08;;;;;;;;;;;;;;;9.44;75.61;102983.03;5073668;28;19908;-34
2021/09/21 06:47:34;;;;;;;;;;;;;;;9.52;75.12;102988.44;5073759;28;20252;-35
2021/09/21 06:49:59;;;;;;;;;;;;;;;9.60;76.17;103000.22;5073208;28;19916;-35
2021/09/21 06:52:24;;;;;;;;;;;;;;;9.67;76.56;103003.94;5074403;28;19913;-35
2021/09/21 06:54:50;;;;;;;;;;;;;;;9.71;76.92;103007.94;5073398;28;20352;-35
2021/09/21 06:57:15;;;;;;;;;;;;;;;9.75;76.83;103014.72;5074037;28;19951;-34
2021/09/21 06:59:41;;;;;;;;;;;;;;;9.82;75.38;103012.19;5073600;28;19908;-34
2021/09/21 07:02:06;;;;;;;;;;;;;;;9.93;75.21;103015.34;5073350;28;19915;-35
2021/09/21 07:04:31;;;;;;;;;;;;;;;10.02;75.93;103013.47;5072876;28;19909;-35
2021/09/21 07:06:56;;;;;;;;;;;;;;;10.08;76.26;103018.16;5073276;28;19908;-35
2021/09/21 07:09:22;;;;;;;;;;;;;;;10.14;75.85;103017.44;5073217;28;19915;-35
2021/09/21 07:11:47;;;;;;;;;;;;;;;10.26;75.82;103013.38;5073626;28;19908;-34
2021/09/21 07:14:14;;;;;;;;;;;;;;;10.35;75.01;103008.78;5073434;28;19916;-34
2021/09/21 07:16:39;;;;;;;;;;;;;;;10.43;77.33;103010.59;5073532;28;19908;-34
2021/09/21 07:19:05;;;;;;;;;;;;;;;10.45;75.96;103000.47;5073430;28;19931;-35
2021/09/21 07:21:30;;;;;;;;;;;;;;;10.53;75.99;103006.63;5073656;28;20003;-35
2021/09/21 07:23:55;;;;;;;;;;;;;;;10.61;76.46;102996.81;5073126;28;19912;-35
2021/09/21 07:26:20;;;;;;;;;;;;;;;10.68;77.51;103005.88;5073200;28;19912;-35
2021/09/21 07:28:46;;;;;;;;;;;;;;;10.65;77.25;103000.84;5073110;28;19920;-35
2021/09/21 07:31:11;;;;;;;;;;;;;;;10.66;78.41;103016.06;5073394;28;19909;-35
2021/09/21 07:33:36;;;;;;;;;;;;;;;10.72;77.48;103007.22;5073820;28;19918;-35
2021/09/21 07:36:02;;;;;;;;;;;;;;;10.85;76.87;103020.16;5073426;28;20003;-35
2021/09/21 07:38:27;;;;;;;;;;;;;;;10.99;77.10;103009.38;5073008;28;19915;-35
2021/09/21 07:40:52;;;;;;;;;;;;;;;11.07;77.60;103020.13;5073270;28;20409;-35
2021/09/21 07:43:17;;;;;;;;;;;;;;;11.08;78.36;103027.25;5072985;28;20313;-35
2021/09/21 07:45:43;;;;;;;;;;;;;;;11.14;77.39;103017.56;5073047;28;20263;-35
2021/09/21 07:48:09;;;;;;;;;;;;;;;11.26;78.05;103015.25;5072900;28;20360;-35
2021/09/21 07:50:35;;;;;;;;;;;;;;;11.32;77.38;103018.09;5073331;28;19915;-35
2021/09/21 07:53:01;;;;;;;;;;;;;;;11.35;76.77;103012.28;5072674;28;19984;-35
2021/09/21 07:55:27;;;;;;;;;;;;;;;11.47;76.55;103007.28;5075471;28;19958;-35
2021/09/21 07:57:52;;;;;;;;;;;;;;;11.57;76.27;103015.97;5077012;28;19962;-35
2021/09/21 08:00:20;;;;;;;;;;;;;;;11.66;76.31;103018.59;5076050;28;19920;-35
2021/09/21 08:02:45;;;;;;;;;;;;;;;11.76;76.23;103030.88;5077149;28;20007;-35
2021/09/21 08:05:11;;;;;;;;;;;;;;;11.88;75.97;103031.28;5076188;28;19991;-35
2021/09/21 08:07:36;;;;;;;;;;;;;;;12.01;75.72;103028.75;5075452;28;19927;-35
2021/09/21 08:10:04;;;;;;;;;;;;;;;12.14;75.41;103038.09;5076741;28;19908;-35
2021/09/21 08:12:29;;;;;;;;;;;;;;;12.22;75.11;103048.84;5076439;28;19994;-35
2021/09/21 08:14:58;;;;;;;;;;;;;;;12.26;75.14;103053.72;5075926;28;20282;-35
2021/09/21 08:17:25;;;;;;;;;;;;;;;12.33;75.15;103059.22;5076220;28;19908;-35
2021/09/21 08:19:51;;;;;;;;;;;;;;;12.42;74.89;103054.53;5075998;28;19908;-35
2021/09/21 08:22:16;;;;;;;;;;;;;;;12.48;74.93;103059.19;5076016;28;20011;-35
2021/09/21 08:24:42;;;;;;;;;;;;;;;12.54;74.61;103050.28;5076164;28;19908;-35
2021/09/21 08:27:07;;;;;;;;;;;;;;;12.60;74.47;103049.53;5076050;28;20267;-35
2021/09/21 08:29:32;;;;;;;;;;;;;;;12.66;74.32;103061.50;5076149;28;19908;-35
2021/09/21 08:31:58;;;;;;;;;;;;;;;12.71;73.92;103064.47;5076471;28;20363;-35
2021/09/21 08:34:23;;;;;;;;;;;;;;;12.75;73.95;103068.50;5075525;28;19978;-35
2021/09/21 08:36:50;;;;;;;;;;;;;;;12.71;74.10;103072.63;5075780;28;20376;-35
2021/09/21 08:39:16;;;;;;;;;;;;;;;12.73;73.96;103076.81;5075378;28;19909;-35
2021/09/21 08:41:41;;;;;;;;;;;;;;;12.73;74.55;103078.69;5075770;28;20348;-35
2021/09/21 08:44:06;;;;;;;;;;;;;;;12.74;74.35;103080.41;5075562;28;19916;-35
2021/09/21 08:46:31;;;;;;;;;;;;;;;12.83;73.84;103081.94;5076679;28;19908;-35
2021/09/21 08:48:57;;;;;;;;;;;;;;;12.90;72.38;103077.44;5075575;28;19916;-35
2021/09/21 08:51:22;;;;;;;;;;;;;;;12.96;72.79;103078.53;5076033;28;19913;-35
2021/09/21 08:53:47;;;;;;;;;;;;;;;13.05;73.05;103080.94;5075761;28;19998;-35
2021/09/21 08:56:12;;;;;;;;;;;;;;;13.15;72.03;103076.03;5076188;28;19908;-35
2021/09/21 08:58:38;;;;;;;;;;;;;;;13.21;72.22;103087.16;5075602;28;19908;-35
2021/09/21 09:01:14;;;;;;;;;;;;;;;13.29;72.21;103082.47;5075133;28;20003;-35
2021/09/21 09:03:39;;;;;;;;;;;;;;;13.45;72.41;103089.50;5074913;28;19908;-35
2021/09/21 09:06:06;;;;;;;;;;;;;;;13.61;71.87;103085.66;5075644;28;19915;-35
2021/09/21 09:08:38;;;;;;;;;;;;;;;13.77;71.47;103095.44;5074888;28;19915;-35
2021/09/21 09:11:13;;;;;;;;;;;;;;;13.86;70.84;103088.81;5075350;28;19908;-35
2021/09/21 09:13:39;;;;;;;;;;;;;;;13.98;70.98;103086.38;5074699;28;19947;-35
2021/09/21 09:16:06;;;;;;;;;;;;;;;14.02;69.66;103085.78;5074668;28;20041;-35
2021/09/21 09:18:31;;;;;;;;;;;;;;;14.17;70.52;103089.19;5075181;28;19915;-35
2021/09/21 09:20:58;;;;;;;;;;;;;;;14.33;68.64;103079.03;5074443;28;20334;-35
2021/09/21 09:23:23;;;;;;;;;;;;;;;14.45;68.40;103093.75;5073555;28;19913;-35
2021/09/21 09:25:49;;;;;;;;;;;;;;;14.54;69.25;103087.13;5073440;28;19916;-35
2021/09/21 09:28:18;;;;;;;;;;;;;;;14.66;68.28;103095.53;5074734;28;19915;-35
2021/09/21 09:30:45;;;;;;;;;;;;;;;14.73;67.45;103084.66;5075529;28;20263;-35
2021/09/21 09:33:10;;;;;;;;;;;;;;;14.79;66.79;103076.53;5074599;28;19908;-35
2021/09/21 09:35:37;;;;;;;;;;;;;;;14.79;66.38;103073.81;5074617;28;19918;-35
2021/09/21 09:38:09;;;;;;;;;;;;;;;14.85;67.16;103075.72;5074605;28;20007;-35
2021/09/21 09:40:51;;;;;;;;;;;;;;;14.91;64.36;103080.31;5075092;28;19908;-35
2021/09/21 09:43:17;;;;;;;;;;;;;;;14.98;63.33;103076.78;5074749;28;19955;-35
2021/09/21 09:45:44;;;;;;;;;;;;;;;15.08;62.76;103071.75;5074245;28;19908;-35
2021/09/21 09:48:11;;;;;;;;;;;;;;;15.16;64.57;103086.03;5074932;28;20233;-35
2021/09/21 09:50:38;;;;;;;;;;;;;;;15.27;60.32;103084.56;5074298;28;19919;-35
2021/09/21 09:53:08;;;;;;;;;;;;;;;15.35;60.29;103078.94;5075154;28;19912;-35
2021/09/21 09:55:34;;;;;;;;;;;;;;;15.37;61.29;103076.84;5074688;28;19908;-35
2021/09/21 09:58:00;;;;;;;;;;;;;;;15.42;59.27;103085.25;5074209;28;20026;-35
2021/09/21 10:00:26;;;;;;;;;;;;;;;15.54;59.67;103090.91;5074141;28;19912;-35
2021/09/21 10:02:52;;;;;;;;;;;;;;;15.67;62.03;103085.47;5074024;28;19909;-35
2021/09/21 10:05:17;;;;;;;;;;;;;;;15.84;61.35;103083.16;5073929;28;19908;-35
2021/09/21 10:07:43;;;;;;;;;;;;;;;15.98;61.73;103083.13;5074265;28;19927;-35
2021/09/21 10:10:09;;;;;;;;;;;;;;;15.97;54.82;103087.75;5074532;28;19908;-35
2021/09/21 10:12:36;;;;;;;;;;;;;;;16.11;58.86;103081.22;5073988;28;19999;-35
2021/09/21 10:15:01;;;;;;;;;;;;;;;16.27;54.43;103081.81;5074414;28;20268;-35
2021/09/21 10:17:28;;;;;;;;;;;;;;;16.29;56.83;103090.59;5073503;28;19909;-35
2021/09/21 10:19:55;;;;;;;;;;;;;;;16.35;56.39;103078.84;5074325;28;19909;-35
2021/09/21 10:22:31;;;;;;;;;;;;;;;16.36;52.52;103086.81;5073840;28;19908;-35
2021/09/21 10:25:03;;;;;;;;;;;;;;;16.30;50.87;103082.22;5073684;28;19957;-35
2021/09/21 10:27:28;;;;;;;;;;;;;;;16.27;52.44;103079.06;5073826;28;19908;-35
2021/09/21 10:29:58;;;;;;;;;;;;;;;16.32;54.53;103062.88;5073947;28;19915;-35
2021/09/21 10:32:24;;;;;;;;;;;;;;;16.51;55.73;103072.88;5073693;28;20014;-35
2021/09/21 10:34:49;;;;;;;;;;;;;;;16.51;53.50;103072.06;5073877;28;19909;-35
2021/09/21 10:37:19;;;;;;;;;;;;;;;16.56;49.35;103069.50;5074379;28;19913;-35
2021/09/21 10:39:44;;;;;;;;;;;;;;;16.68;53.89;103065.84;5073809;28;19908;-35
2021/09/21 10:42:11;;;;;;;;;;;;;;;16.84;53.43;103061.84;5074148;28;19931;-35
2021/09/21 10:44:48;;;;;;;;;;;;;;;16.99;52.65;103069.72;5073440;28;20252;-35
2021/09/21 10:47:19;;;;;;;;;;;;;;;17.07;49.25;103061.25;5073102;28;19908;-35
2021/09/21 10:49:44;;;;;;;;;;;;;;;17.18;52.88;103062.47;5073243;28;20356;-35
2021/09/21 10:52:13;;;;;;;;;;;;;;;17.04;46.21;103069.91;5073635;28;19996;-35
2021/09/21 10:54:51;;;;;;;;;;;;;;;16.92;50.81;103067.03;5073426;28;19963;-35
2021/09/21 10:57:17;;;;;;;;;;;;;;;17.01;50.99;103070.34;5074143;28;19920;-36
2021/09/21 10:59:52;;;;;;;;;;;;;;;17.07;51.29;103072.19;5073191;28;19915;-35
2021/09/21 11:02:19;;;;;;;;;;;;;;;16.91;47.71;103079.00;5073426;28;19968;-35
2021/09/21 11:04:44;;;;;;;;;;;;;;;16.95;50.56;103074.78;5073076;28;20376;-35
2021/09/21 11:07:10;;;;;;;;;;;;;;;16.98;46.44;103081.69;5073880;28;19933;-35
2021/09/21 11:09:36;;;;;;;;;;;;;;;17.06;50.30;103077.88;5073038;28;19916;-35
2021/09/21 11:12:08;;;;;;;;;;;;;;;17.28;50.97;103084.69;5073234;28;19965;-35
2021/09/21 11:14:38;;;;;;;;;;;;;;;17.54;51.39;103080.88;5073218;28;19934;-35
2021/09/21 11:17:04;;;;;;;;;;;;;;;17.71;51.01;103073.78;5073178;28;20042;-35
2021/09/21 11:19:30;;;;;;;;;;;;;;;17.84;47.34;103072.00;5073002;28;19955;-35
2021/09/21 11:22:00;;;;;;;;;;;;;;;17.91;48.59;103078.25;5072994;28;19916;-35
2021/09/21 11:24:26;;;;;;;;;;;;;;;17.87;47.14;103077.88;5072835;28;20008;-35
2021/09/21 11:27:02;;;;;;;;;;;;;;;17.90;50.63;103080.16;5073455;28;19912;-35
2021/09/21 11:29:28;;;;;;;;;;;;;;;17.83;47.58;103081.28;5074690;28;20295;-35
2021/09/21 11:31:53;;;;;;;;;;;;;;;17.72;44.75;103071.91;5077306;28;19909;-35
2021/09/21 11:34:18;;;;;;;;;;;;;;;17.74;47.42;103073.34;5076951;28;19915;-35
2021/09/21 11:36:49;;;;;;;;;;;;;;;17.84;48.71;103066.53;5077746;28;20334;-35
2021/09/21 11:39:15;;;;;;;;;;;;;;;17.88;48.30;103073.25;5077146;28;19908;-35
2021/09/21 11:41:40;;;;;;;;;;;;;;;17.95;49.24;103082.22;5076582;28;20368;-35
2021/09/21 11:44:05;;;;;;;;;;;;;;;18.01;49.59;103067.63;5076545;28;19918;-35
2021/09/21 11:46:31;;;;;;;;;;;;;;;18.16;51.08;103062.63;5077015;28;19908;-35
2021/09/21 11:48:58;;;;;;;;;;;;;;;18.32;47.29;103068.53;5076548;28;19912;-35
2021/09/21 11:51:24;;;;;;;;;;;;;;;18.42;48.71;103063.34;5076962;28;19913;-35
2021/09/21 11:53:50;;;;;;;;;;;;;;;18.44;47.16;103067.53;5076941;28;20416;-35
2021/09/21 11:56:19;;;;;;;;;;;;;;;18.40;49.11;103058.13;5076919;28;19915;-35
2021/09/21 11:58:44;;;;;;;;;;;;;;;18.52;49.69;103056.25;5076527;28;19915;-35
2021/09/21 12:01:09;;;;;;;;;;;;;;;18.67;48.69;103049.53;5077257;28;19908;-35
2021/09/21 12:03:35;;;;;;;;;;;;;;;18.86;49.79;103053.09;5076086;28;20279;-35
2021/09/21 12:06:01;;;;;;;;;;;;;;;19.00;49.91;103052.66;5076333;28;19919;-35
2021/09/21 12:08:31;;;;;;;;;;;;;;;19.11;46.65;103051.03;5076806;28;19913;-35
2021/09/21 12:11:10;;;;;;;;;;;;;;;19.06;45.31;103053.63;5076841;28;20003;-35
2021/09/21 12:13:35;;;;;;;;;;;;;;;19.04;48.03;103055.78;5076224;28;20267;-35
2021/09/21 12:16:02;;;;;;;;;;;;;;;19.10;48.86;103051.28;5076984;28;19912;-35
2021/09/21 12:18:28;;;;;;;;;;;;;;;19.19;47.78;103047.94;5076082;28;19915;-35
2021/09/21 12:20:55;;;;;;;;;;;;;;;19.28;49.43;103051.19;5075892;28;19954;-35
2021/09/21 12:23:22;;;;;;;;;;;;;;;19.26;47.31;103048.66;5076585;28;19912;-35
2021/09/21 12:25:49;;;;;;;;;;;;;;;19.28;46.61;103045.72;5076799;28;19912;-35
2021/09/21 12:28:14;;;;;;;;;;;;;;;19.22;48.17;103046.63;5076276;28;19914;-35
2021/09/21 12:30:41;;;;;;;;;;;;;;;19.18;47.76;103043.53;5075938;28;19908;-35
2021/09/21 12:33:08;;;;;;;;;;;;;;;19.16;46.55;103042.94;5075674;28;19962;-35
2021/09/21 12:35:35;;;;;;;;;;;;;;;19.25;47.71;103036.03;5075841;28;19909;-35
2021/09/21 12:38:09;;;;;;;;;;;;;;;19.36;46.42;103031.63;5075821;28;19912;-35
2021/09/21 12:40:46;;;;;;;;;;;;;;;19.46;47.47;103036.53;5075921;28;19994;-35
2021/09/21 12:43:15;;;;;;;;;;;;;;;19.63;48.21;103033.94;5076627;28;20337;-35
2021/09/21 12:45:42;;;;;;;;;;;;;;;19.81;47.65;103039.28;5075529;28;20361;-35
2021/09/21 12:48:07;;;;;;;;;;;;;;;19.92;45.67;103023.91;5075819;28;19976;-35